Time;durP1;ratioP1;P1;durP2;ratioP2;P2;SDS_P1;SDS_P2;PMS_P1;PMS_P2;Temp;Humidity;BMP_temperature;BMP_pressure;BME280_temperature;BME280_humidity;BME280_pressure;Samples;Min_cycle;Max_cycle;Signal;HPM_P1;HPM_P2
2023/11/29 00:01:50;;;;;;;4.30;3.40;;;-0.90;99.90;;;-141.84;95.33;24800.38;4990254;28;20230;-67
2023/11/29 00:04:18;;;;;;;3.47;3.13;;;-0.90;99.90;;;-141.84;94.42;22747.63;4990595;28;20268;-70
2023/11/29 00:06:46;;;;;;;4.10;3.70;;;-1.00;99.90;;;-141.84;95.66;24873.63;4991612;28;20230;-68
2023/11/29 00:09:16;;;;;;;4.07;3.23;;;-1.00;99.90;;;-141.84;94.26;22672.38;4990091;28;20294;-67
2023/11/29 00:11:44;;;;;;;4.77;3.57;;;-0.90;99.90;;;-141.84;92.88;21208.28;4999898;28;20249;-66
2023/11/29 00:14:13;;;;;;;3.57;3.27;;;-1.00;99.90;;;-141.84;91.21;19706.13;5025456;28;20230;-65
2023/11/29 00:16:41;;;;;;;3.80;3.30;;;-0.90;99.90;;;-141.84;90.96;19419.59;5009575;28;20245;-66
2023/11/29 00:19:09;;;;;;;4.93;3.47;;;-1.00;99.90;;;-141.84;90.25;19133.06;5009429;28;20773;-67
2023/11/29 00:21:42;;;;;;;4.30;3.50;;;-0.80;99.90;;;-141.84;90.56;19313.91;5009578;28;20302;-66
2023/11/29 00:24:10;;;;;;;4.23;3.23;;;-0.90;99.90;;;-141.84;90.46;19218.41;5009921;28;20187;-66
2023/11/29 00:26:40;;;;;;;3.57;2.90;;;-0.80;99.90;;;-141.84;90.73;19354.56;5004952;28;20293;-66
2023/11/29 00:29:08;;;;;;;5.33;3.33;;;-0.90;99.90;;;-141.84;89.47;18970.50;5008034;28;20319;-67
2023/11/29 00:31:36;;;;;;;4.20;3.10;;;-0.90;99.90;;;-141.84;90.33;19214.34;5008941;28;20321;-68
2023/11/29 00:34:05;;;;;;;4.23;3.40;;;-1.00;99.90;;;-141.84;91.53;19525.25;5009377;28;20292;-66
2023/11/29 00:36:35;;;;;;;4.43;3.77;;;-1.10;99.90;;;-141.84;93.74;20980.59;5009173;28;20297;-65
2023/11/29 00:39:03;;;;;;;4.23;3.60;;;-1.10;99.90;;;-141.84;95.01;22643.91;5011053;28;20280;-75
2023/11/29 00:41:32;;;;;;;4.17;3.40;;;-1.30;99.90;;;-141.84;93.99;22155.81;5005939;28;20227;-73
2023/11/29 00:44:01;;;;;;;6.17;3.63;;;-1.30;99.90;;;-141.84;93.77;20974.50;5018719;28;20630;-72
2023/11/29 00:46:29;;;;;;;4.83;3.50;;;-1.40;99.90;;;-141.84;93.38;21141.19;5014173;28;20318;-72
2023/11/29 00:48:57;;;;;;;6.67;3.60;;;-1.40;99.90;;;-141.84;94.41;21549.84;5013599;28;20222;-73
2023/11/29 00:51:26;;;;;;;4.87;3.80;;;-1.50;99.90;;;-141.84;95.94;24537.88;5014124;28;20203;-74
2023/11/29 00:53:54;;;;;;;5.80;4.30;;;-1.50;99.90;;;-141.84;96.24;26848.06;5014574;28;20210;-73
2023/11/29 00:56:22;;;;;;;4.73;3.83;;;-1.50;99.90;;;-141.84;96.03;24645.72;5012823;28;20276;-72
2023/11/29 00:58:51;;;;;;;5.50;4.30;;;-1.50;99.90;;;-141.84;97.34;28976.31;5013236;28;20230;-72
2023/11/29 01:01:20;;;;;;;4.97;4.40;;;-1.50;99.90;;;-141.84;97.24;30765.31;4996375;28;20266;-74
2023/11/29 01:03:48;;;;;;;4.97;4.07;;;-1.50;99.90;;;-141.84;98.73;36474.03;4994054;28;20226;-72
2023/11/29 01:06:17;;;;;;;4.57;4.13;;;-1.50;99.90;;;-141.84;99.48;43395.16;4993841;28;20231;-72
2023/11/29 01:08:45;;;;;;;6.60;4.87;;;-1.60;99.90;;;-141.84;100.00;48632.88;5009230;28;20222;-73
2023/11/29 01:11:13;;;;;;;5.70;4.77;;;-1.60;99.90;;;-141.84;100.00;52565.75;5012911;28;20225;-74
2023/11/29 01:13:42;;;;;;;6.87;5.20;;;-1.70;99.90;;;-141.84;98.33;37666.16;5024626;28;20229;-73
2023/11/29 01:16:11;;;;;;;7.03;5.17;;;-1.60;99.90;;;-141.84;99.87;44180.38;5032245;28;20724;-72
2023/11/29 01:18:43;;;;;;;8.43;6.00;;;-1.70;99.90;;;-141.84;99.63;44442.13;5031086;28;20222;-74
2023/11/29 01:21:12;;;;;;;6.93;5.40;;;-1.70;99.90;;;-141.84;99.59;44703.94;5014444;28;20216;-71
2023/11/29 01:23:46;;;;;;;7.60;5.60;;;-1.70;99.90;;;-141.84;100.00;50992.13;4992003;28;20238;-72
2023/11/29 01:26:14;;;;;;;7.30;5.73;;;-1.70;99.90;;;-141.84;100.00;55977.41;4993067;28;20227;-73
2023/11/29 01:28:43;;;;;;;7.77;5.90;;;-1.80;99.90;;;-141.84;100.00;60706.06;4994172;28;20226;-71
2023/11/29 01:31:12;;;;;;;9.50;6.10;;;-1.80;99.90;;;-141.84;100.00;64387.81;4992154;28;20317;-71
2023/11/29 01:33:42;;;;;;;6.90;5.30;;;-1.90;99.90;;;-141.84;100.00;63861.66;4996276;28;20230;-73
2023/11/29 01:36:12;;;;;;;6.37;5.60;;;-1.80;99.90;;;-141.84;100.00;63335.53;5012639;28;20582;-71
2023/11/29 01:38:40;;;;;;;8.00;6.50;;;-2.00;99.90;;;-141.84;100.00;64914.06;5012418;28;20268;-73
2023/11/29 01:41:08;;;;;;;6.40;5.30;;;-1.80;99.90;;;-141.84;100.00;63598.59;5010336;28;20236;-73
2023/11/29 01:43:37;;;;;;;6.77;5.50;;;-2.00;99.90;;;-141.84;100.00;69653.38;5021479;28;20235;-73
2023/11/29 01:46:05;;;;;;;8.17;5.70;;;-1.80;99.90;;;-141.84;100.00;68072.97;5030062;28;20793;-73
2023/11/29 01:48:34;;;;;;;7.50;5.67;;;-1.80;99.90;;;-141.84;100.00;63072.50;5015447;28;20313;-73
2023/11/29 01:51:05;;;;;;;7.90;5.50;;;-1.80;99.90;;;-141.84;100.00;59654.75;5010968;28;20203;-73
2023/11/29 01:53:34;;;;;;;8.97;5.80;;;-1.80;99.90;;;-141.84;100.00;63335.53;5010420;28;20246;-73
2023/11/29 01:56:08;;;;;;;9.07;5.90;;;-1.70;99.90;;;-141.84;100.00;65177.19;5010150;28;20584;-73
2023/11/29 01:58:36;;;;;;;7.70;4.77;;;-1.70;99.90;;;-141.84;100.00;63598.59;5010635;28;20313;-72
2023/11/29 02:01:05;;;;;;;6.67;5.20;;;-1.80;99.90;;;-141.84;100.00;66493.19;4997121;28;20262;-72
2023/11/29 02:03:33;;;;;;;7.23;5.63;;;-1.80;99.90;;;-141.84;100.00;67809.63;4998555;28;20541;-72
2023/11/29 02:06:02;;;;;;;8.30;5.67;;;-1.80;99.90;;;-141.84;100.00;73343.38;5014878;28;20626;-72
2023/11/29 02:08:33;;;;;;;6.83;5.67;;;-1.90;99.90;;;-141.84;100.00;77300.78;5014366;28;20713;-73
2023/11/29 02:11:01;;;;;;;7.73;5.87;;;-1.90;99.90;;;-141.84;100.00;80997.84;5014093;28;20595;-73
2023/11/29 02:13:29;;;;;;;7.43;5.77;;;-1.80;99.90;;;-141.84;100.00;80733.66;5024297;28;20229;-74
2023/11/29 02:15:57;;;;;;;7.37;5.83;;;-1.90;99.90;;;-141.84;100.00;83905.09;5034387;28;20306;-74
2023/11/29 02:18:26;;;;;;;9.03;6.07;;;-2.00;99.90;;;-141.84;100.00;80205.34;5033809;28;20201;-76
2023/11/29 02:20:54;;;;;;;8.33;6.27;;;-1.90;99.90;;;-141.84;100.00;77036.81;5022470;28;20631;-74
2023/11/29 02:23:30;;;;;;;7.80;6.20;;;-1.90;99.90;;;-141.84;100.00;76245.09;4994384;28;20224;-74
2023/11/29 02:26:00;;;;;;;7.63;5.97;;;-1.80;99.90;;;-141.84;100.00;78620.75;4994407;28;20234;-76
2023/11/29 02:28:28;;;;;;;8.20;6.60;;;-1.80;99.90;;;-141.84;100.00;73079.69;4994527;28;20263;-73
2023/11/29 02:30:56;;;;;;;9.20;6.30;;;-1.80;99.90;;;-141.84;100.00;66756.44;4994271;28;20297;-74
2023/11/29 02:33:24;;;;;;;8.17;6.40;;;-1.80;99.90;;;-141.84;100.00;68599.69;4995664;28;20239;-75
2023/11/29 02:35:53;;;;;;;8.47;6.50;;;-1.80;99.90;;;-141.84;100.00;70443.78;5014337;28;20209;-75
2023/11/29 02:38:21;;;;;;;8.20;6.23;;;-1.90;99.90;;;-141.84;100.00;74925.88;5013822;28;20293;-74
2023/11/29 02:40:50;;;;;;;8.20;6.00;;;-2.00;99.90;;;-141.84;100.00;73870.81;5013678;28;20310;-73
2023/11/29 02:43:19;;;;;;;8.13;5.97;;;-1.90;99.90;;;-141.84;100.00;75453.50;5022228;28;20234;-73
2023/11/29 02:45:47;;;;;;;7.53;5.70;;;-2.00;99.90;;;-141.84;100.00;72816.03;5033596;28;20284;-72
2023/11/29 02:48:16;;;;;;;7.33;5.90;;;-1.80;99.90;;;-141.84;100.00;62546.50;5021418;28;20198;-73
2023/11/29 02:50:44;;;;;;;7.17;5.47;;;-1.90;99.90;;;-141.84;100.00;64387.81;5013121;28;20249;-73
2023/11/29 02:53:12;;;;;;;8.03;6.27;;;-2.00;99.90;;;-141.84;100.00;63072.50;5008515;28;20587;-73
2023/11/29 02:55:41;;;;;;;7.50;5.90;;;-2.00;99.90;;;-141.84;100.00;67283.00;5013289;28;20281;-73
2023/11/29 02:58:09;;;;;;;6.97;5.37;;;-2.10;99.90;;;-141.84;100.00;72552.38;5001890;28;20273;-72
2023/11/29 03:00:39;;;;;;;7.57;5.47;;;-2.10;99.90;;;-141.84;100.00;72288.75;5004567;28;20345;-72
2023/11/29 03:03:07;;;;;;;6.33;5.27;;;-2.10;99.90;;;-141.84;100.00;65966.75;5013555;28;20613;-73
2023/11/29 03:05:36;;;;;;;6.73;4.97;;;-2.10;99.90;;;-141.84;100.00;58866.47;5013501;28;20241;-73
2023/11/29 03:08:07;;;;;;;7.27;5.47;;;-2.10;99.90;;;-141.84;100.00;62020.59;5012841;28;20226;-73
2023/11/29 03:10:36;;;;;;;7.20;5.50;;;-2.10;99.90;;;-141.84;100.00;57290.34;5013349;28;20716;-72
2023/11/29 03:13:04;;;;;;;5.60;4.63;;;-2.10;99.90;;;-141.84;100.00;48370.84;5018892;28;20701;-72
2023/11/29 03:15:31;;;;;;;7.20;4.93;;;-2.00;99.90;;;-141.84;100.00;58078.34;5033296;28;20295;-73
2023/11/29 03:18:01;;;;;;;6.37;4.87;;;-2.10;99.90;;;-141.84;100.00;57290.34;5033640;28;20284;-73
2023/11/29 03:20:29;;;;;;;6.00;5.23;;;-2.10;99.90;;;-141.84;100.00;57553.00;5032703;28;20244;-73
2023/11/29 03:22:57;;;;;;;7.17;5.70;;;-2.10;99.90;;;-141.84;100.00;52041.16;5032478;28;20577;-73
2023/11/29 03:25:26;;;;;;;5.70;5.10;;;-2.10;99.90;;;-141.84;100.00;52828.09;5032594;28;20250;-74
2023/11/29 03:27:54;;;;;;;6.10;4.47;;;-2.00;99.90;;;-141.84;100.00;56239.94;5032405;28;20245;-74
2023/11/29 03:30:23;;;;;;;7.10;5.20;;;-2.20;99.90;;;-141.84;100.00;63861.66;5020217;28;20207;-72
2023/11/29 03:32:51;;;;;;;6.53;5.17;;;-2.20;99.90;;;-141.84;100.00;63072.50;5012887;28;20642;-73
2023/11/29 03:35:20;;;;;;;6.03;4.80;;;-2.20;99.90;;;-141.84;99.41;47060.84;5012852;28;20241;-73
2023/11/29 03:37:49;;;;;;;6.53;5.20;;;-2.10;99.90;;;-141.84;96.71;29047.59;5012647;28;20223;-73
2023/11/29 03:40:17;;;;;;;9.10;4.87;;;-2.00;99.90;;;-141.84;97.80;31456.28;5012698;28;20231;-73
2023/11/29 03:42:45;;;;;;;5.50;4.20;;;-2.10;99.90;;;-141.84;94.71;23886.78;5016169;28;20553;-74
2023/11/29 03:45:13;;;;;;;5.80;4.53;;;-2.00;99.90;;;-141.84;94.16;22196.50;5032606;28;20297;-72
2023/11/29 03:47:42;;;;;;;5.03;4.53;;;-1.90;99.90;;;-141.84;95.50;23272.41;5002978;28;20206;-74
2023/11/29 03:50:10;;;;;;;5.07;4.20;;;-2.10;99.90;;;-141.84;97.30;27792.91;5012546;28;20310;-74
2023/11/29 03:52:40;;;;;;;6.40;4.63;;;-2.10;99.90;;;-141.84;99.05;38632.00;5012298;28;20238;-75
2023/11/29 03:55:10;;;;;;;5.50;4.57;;;-2.20;99.90;;;-141.84;98.93;38388.97;5012897;28;20641;-75
2023/11/29 03:57:38;;;;;;;5.80;4.40;;;-2.10;99.90;;;-141.84;98.65;38260.34;5011977;28;20281;-76
2023/11/29 04:00:08;;;;;;;6.47;4.40;;;-2.20;99.90;;;-141.84;98.15;36265.84;5011639;28;20203;-74
2023/11/29 04:02:36;;;;;;;4.90;4.17;;;-2.20;99.90;;;-141.84;95.00;23707.75;5011935;28;20241;-74
2023/11/29 04:05:06;;;;;;;5.13;4.33;;;-2.10;99.90;;;-141.84;95.22;23370.06;5011930;28;20304;-74
2023/11/29 04:07:35;;;;;;;5.20;3.90;;;-2.10;99.90;;;-141.84;96.15;24627.41;5011872;28;20326;-74
2023/11/29 04:10:05;;;;;;;5.23;4.33;;;-2.20;99.90;;;-141.84;94.56;23166.63;5012061;28;20321;-73
2023/11/29 04:12:37;;;;;;;4.80;3.90;;;-2.20;99.90;;;-141.84;93.88;21661.69;5014601;28;20764;-74
2023/11/29 04:15:07;;;;;;;6.00;4.13;;;-2.20;99.90;;;-141.84;94.20;21318.06;5032256;28;20232;-73
2023/11/29 04:17:35;;;;;;;5.47;4.20;;;-2.10;99.90;;;-141.84;94.85;22525.94;5031848;28;20230;-73
2023/11/29 04:20:05;;;;;;;5.33;4.10;;;-2.20;99.90;;;-141.84;94.46;21958.56;5031506;28;20380;-73
2023/11/29 04:22:37;;;;;;;5.73;4.30;;;-2.10;99.90;;;-141.84;94.34;21881.28;5031458;28;20240;-72
2023/11/29 04:25:08;;;;;;;3.93;3.53;;;-1.80;99.90;;;-141.84;93.35;20761.03;5030928;28;20279;-73
2023/11/29 04:27:37;;;;;;;5.27;3.60;;;-2.20;99.90;;;-141.84;93.08;20191.88;5031740;28;20233;-73
2023/11/29 04:30:07;;;;;;;4.90;3.70;;;-2.20;99.90;;;-141.84;91.67;19397.22;5022219;28;20272;-74
2023/11/29 04:32:36;;;;;;;4.53;3.60;;;-2.20;99.90;;;-141.84;91.08;19202.16;5011249;28;20655;-72
2023/11/29 04:35:06;;;;;;;5.10;4.47;;;-2.20;99.90;;;-141.84;91.66;19360.66;5011550;28;20234;-74
2023/11/29 04:37:34;;;;;;;4.40;3.77;;;-2.20;99.90;;;-141.84;91.85;19521.19;5011369;28;20231;-74
2023/11/29 04:40:02;;;;;;;4.23;3.37;;;-2.20;99.90;;;-141.84;92.92;20151.22;5011784;28;20367;-73
2023/11/29 04:42:32;;;;;;;5.40;3.50;;;-2.20;99.90;;;-141.84;90.57;19216.38;5012925;28;20260;-72
2023/11/29 04:45:00;;;;;;;6.50;4.30;;;-2.20;99.90;;;-141.84;90.46;19003.00;5031808;28;20287;-73
2023/11/29 04:47:28;;;;;;;4.87;4.10;;;-2.10;99.90;;;-141.84;91.02;19189.97;5003314;28;20226;-73
2023/11/29 04:49:56;;;;;;;5.17;3.97;;;-2.20;99.90;;;-141.84;91.33;19175.72;5011457;28;20229;-73
2023/11/29 04:52:24;;;;;;;4.27;3.57;;;-2.20;99.90;;;-141.84;90.37;19043.66;5010941;28;20287;-72
2023/11/29 04:54:52;;;;;;;5.47;3.80;;;-2.20;99.90;;;-141.84;89.80;18875.00;5011480;28;20246;-73
2023/11/29 04:57:21;;;;;;;5.10;3.87;;;-2.20;99.90;;;-141.84;89.49;18789.66;5010874;28;20565;-73
2023/11/29 04:59:50;;;;;;;4.93;3.60;;;-2.20;99.90;;;-141.84;89.04;18775.44;5006564;28;20270;-74
2023/11/29 05:02:19;;;;;;;5.67;3.77;;;-2.20;99.90;;;-141.84;89.29;18757.16;5007543;28;20706;-74
2023/11/29 05:04:47;;;;;;;4.97;3.90;;;-2.20;99.90;;;-141.84;89.68;18836.41;5011073;28;20220;-72
2023/11/29 05:07:16;;;;;;;5.10;3.50;;;-2.20;99.90;;;-141.84;89.00;18789.66;5011106;28;20234;-74
2023/11/29 05:09:44;;;;;;;6.27;3.67;;;-2.20;99.90;;;-141.84;88.98;18742.94;5011076;28;20331;-73
2023/11/29 05:12:12;;;;;;;3.77;3.37;;;-2.10;99.90;;;-141.84;89.66;18848.59;5011591;28;20381;-73
2023/11/29 05:14:40;;;;;;;5.63;3.57;;;-2.10;99.90;;;-141.84;89.90;18907.50;5030780;28;20298;-73
2023/11/29 05:17:10;;;;;;;5.13;3.77;;;-2.10;99.90;;;-141.84;88.96;18814.03;5030490;28;20309;-73
2023/11/29 05:19:38;;;;;;;5.43;3.90;;;-2.10;99.90;;;-141.84;88.88;18704.31;5030289;28;20767;-73
2023/11/29 05:22:06;;;;;;;5.10;3.83;;;-2.10;99.90;;;-141.84;89.34;18793.72;5030541;28;20807;-74
2023/11/29 05:24:34;;;;;;;4.70;3.70;;;-2.00;99.90;;;-141.84;90.55;19096.47;5031361;28;20297;-74
2023/11/29 05:27:03;;;;;;;5.10;3.67;;;-2.00;99.90;;;-141.84;89.48;18899.38;5031647;28;20308;-74
2023/11/29 05:29:31;;;;;;;7.80;6.73;;;-1.90;99.90;;;-141.84;89.52;18864.84;5025025;28;20260;-74
2023/11/29 05:31:59;;;;;;;4.83;4.27;;;-2.00;99.90;;;-141.84;87.41;18606.81;5010367;28;20734;-74
2023/11/29 05:34:28;;;;;;;4.83;4.03;;;-1.90;99.90;;;-141.84;87.36;18588.53;5010460;28;20312;-74
2023/11/29 05:36:57;;;;;;;7.17;3.87;;;-1.90;99.90;;;-141.84;89.06;18777.47;5010492;28;20313;-73
2023/11/29 05:39:25;;;;;;;5.20;3.60;;;-1.90;99.90;;;-141.84;87.83;18651.50;5010428;28;20642;-74
2023/11/29 05:41:55;;;;;;;4.70;3.80;;;-1.80;99.90;;;-141.84;88.06;18690.09;5010736;28;20310;-75
2023/11/29 05:44:23;;;;;;;4.40;3.87;;;-1.70;99.90;;;-141.84;86.73;18564.13;5027985;28;20320;-75
2023/11/29 05:46:52;;;;;;;4.80;3.87;;;-1.70;99.90;;;-141.84;87.26;18600.72;5007431;28;20717;-76
2023/11/29 05:49:20;;;;;;;5.47;4.27;;;-1.70;99.90;;;-141.84;87.85;18663.69;5010342;28;20330;-74
2023/11/29 05:51:50;;;;;;;4.70;3.90;;;-1.70;99.90;;;-141.84;86.60;18564.13;5010544;28;20253;-74
2023/11/29 05:54:19;;;;;;;4.57;4.00;;;-1.60;99.90;;;-141.84;86.96;18600.72;4990919;28;20208;-74
2023/11/29 05:56:48;;;;;;;5.23;4.37;;;-1.60;99.90;;;-141.84;86.53;18570.22;4991423;28;20253;-75
2023/11/29 05:59:17;;;;;;;5.07;4.10;;;-1.60;99.90;;;-141.84;85.95;18517.41;4990294;28;20234;-76
2023/11/29 06:01:45;;;;;;;5.40;4.03;;;-1.50;99.90;;;-141.84;85.86;18537.72;4990941;28;20734;-76
2023/11/29 06:04:13;;;;;;;6.43;5.00;;;-1.40;99.90;;;-141.84;85.03;18517.41;4990791;28;20235;-74
2023/11/29 06:06:42;;;;;;;9.70;6.77;;;-1.40;99.90;;;-141.84;84.03;18484.91;4990637;28;20319;-74
2023/11/29 06:09:12;;;;;;;13.80;9.80;;;-1.40;99.90;;;-141.84;84.57;18434.13;4991218;28;20215;-75
2023/11/29 06:11:42;;;;;;;6.47;4.90;;;-1.40;99.90;;;-141.84;85.26;18501.16;4971529;28;20299;-76
2023/11/29 06:14:11;;;;;;;8.20;5.40;;;-1.40;99.90;;;-141.84;85.09;18519.44;5017877;28;20225;-74
2023/11/29 06:16:39;;;;;;;7.00;5.10;;;-1.30;99.90;;;-141.84;84.81;18499.13;5030010;28;20265;-73
2023/11/29 06:19:07;;;;;;;6.83;5.70;;;-1.20;99.90;;;-141.84;85.88;18551.94;5030458;28;20275;-74
2023/11/29 06:21:35;;;;;;;7.33;5.00;;;-1.30;99.90;;;-141.84;87.04;18612.91;5030301;28;20221;-73
2023/11/29 06:24:04;;;;;;;6.17;4.53;;;-1.40;99.90;;;-141.84;85.82;18582.44;5030406;28;20229;-73
2023/11/29 06:26:33;;;;;;;5.33;4.13;;;-1.30;99.90;;;-141.84;86.68;18602.75;5029757;28;20222;-74
2023/11/29 06:29:03;;;;;;;5.20;4.40;;;-1.30;99.90;;;-141.84;85.92;18556.00;5028400;28;20230;-74
2023/11/29 06:31:32;;;;;;;5.37;4.23;;;-1.30;99.90;;;-141.84;86.21;18547.88;5010230;28;20256;-74
2023/11/29 06:34:00;;;;;;;6.90;4.97;;;-1.30;99.90;;;-141.84;87.52;18661.66;5010140;28;20230;-74
2023/11/29 06:36:28;;;;;;;5.70;4.80;;;-1.30;99.90;;;-141.84;88.82;18812.00;5010119;28;20242;-72
2023/11/29 06:39:03;;;;;;;6.70;4.73;;;-1.30;99.90;;;-141.84;88.36;18850.63;5010782;28;20205;-74
2023/11/29 06:41:32;;;;;;;5.70;4.40;;;-1.20;99.90;;;-141.84;88.45;18799.81;5010157;28;20253;-74
2023/11/29 06:44:01;;;;;;;6.00;4.63;;;-1.20;99.90;;;-141.84;86.21;18594.63;5024062;28;20233;-68
2023/11/29 06:46:29;;;;;;;5.83;4.50;;;-1.20;99.90;;;-141.84;86.20;18619.00;5011929;28;20656;-69
2023/11/29 06:48:57;;;;;;;5.50;4.73;;;-1.10;99.90;;;-141.84;85.13;18525.53;5013486;28;20327;-70
2023/11/29 06:51:26;;;;;;;5.43;4.37;;;-1.00;99.90;;;-141.84;85.91;18570.22;5013598;28;20218;-69
2023/11/29 06:53:54;;;;;;;5.47;4.30;;;-1.10;99.90;;;-141.84;87.74;18663.69;5014199;28;20285;-69
2023/11/29 06:56:22;;;;;;;6.23;4.80;;;-1.20;99.90;;;-141.84;86.99;18688.06;5012081;28;20258;-69
2023/11/29 06:58:52;;;;;;;7.13;4.93;;;-1.10;99.90;;;-141.84;86.39;18633.22;5013238;28;20277;-69
2023/11/29 07:01:21;;;;;;;6.40;4.73;;;-1.20;99.90;;;-141.84;86.93;18671.81;4995732;28;20231;-69
2023/11/29 07:03:49;;;;;;;5.87;4.90;;;-1.10;99.90;;;-141.84;86.14;18574.28;4996293;28;21024;-68
2023/11/29 07:06:22;;;;;;;6.53;4.87;;;-1.10;99.90;;;-141.84;87.56;18679.94;5012733;28;20199;-69
2023/11/29 07:08:50;;;;;;;6.50;5.23;;;-1.20;99.90;;;-141.84;89.21;18958.31;5014005;28;20206;-69
2023/11/29 07:11:19;;;;;;;6.67;5.23;;;-1.20;99.90;;;-141.84;87.96;18789.66;5012836;28;20774;-69
2023/11/29 07:13:47;;;;;;;6.73;5.10;;;-1.10;99.90;;;-141.84;86.97;18692.13;5023549;28;20222;-69
2023/11/29 07:16:17;;;;;;;6.23;5.10;;;-1.10;99.90;;;-141.84;88.86;18879.06;5013080;28;20658;-69
2023/11/29 07:18:45;;;;;;;7.00;5.33;;;-1.10;99.90;;;-141.84;89.80;19017.25;5013255;28;20233;-69
2023/11/29 07:21:14;;;;;;;7.20;5.60;;;-1.10;99.90;;;-141.84;89.54;19061.94;5013425;28;20203;-68
2023/11/29 07:23:42;;;;;;;6.10;5.10;;;-1.10;99.90;;;-141.84;88.73;18868.91;5013402;28;20227;-70
2023/11/29 07:26:10;;;;;;;6.47;5.13;;;-1.00;99.90;;;-141.84;89.43;19009.09;5012534;28;20226;-69
2023/11/29 07:28:38;;;;;;;6.00;5.40;;;-1.00;99.90;;;-141.84;88.59;18940.03;5012849;28;20313;-70
2023/11/29 07:31:09;;;;;;;7.17;5.23;;;-0.90;99.90;;;-141.84;88.18;18864.84;5012426;28;20233;-69
2023/11/29 07:33:39;;;;;;;6.20;4.87;;;-0.90;99.90;;;-141.84;86.39;18619.00;5012791;28;20222;-68
2023/11/29 07:36:12;;;;;;;6.43;5.10;;;-0.80;99.90;;;-141.84;86.38;18635.25;5013200;28;20215;-69
2023/11/29 07:38:42;;;;;;;8.20;5.67;;;-0.80;99.90;;;-141.84;85.95;18627.13;4989950;28;20224;-70
2023/11/29 07:41:11;;;;;;;5.93;5.33;;;-0.70;99.90;;;-141.84;83.67;18501.16;5007391;28;20740;-70
2023/11/29 07:43:39;;;;;;;6.17;5.07;;;-0.60;99.90;;;-141.84;84.53;18507.25;5011616;28;20226;-71
2023/11/29 07:46:07;;;;;;;8.00;6.13;;;-0.60;99.90;;;-141.84;84.44;18537.72;5006302;28;20642;-67
2023/11/29 07:48:35;;;;;;;6.70;5.40;;;-0.50;99.90;;;-141.84;83.38;18533.66;5009973;28;20621;-63
2023/11/29 07:51:06;;;;;;;6.93;5.60;;;-0.40;99.90;;;-141.84;82.27;18495.06;5012340;28;20686;-64
2023/11/29 07:53:34;;;;;;;6.27;5.23;;;-0.30;99.90;;;-141.84;82.92;18474.75;5009013;28;20317;-63
2023/11/29 07:56:03;;;;;;;7.00;5.53;;;-0.20;99.90;;;-141.84;83.13;18491.00;5006012;28;20398;-69
2023/11/29 07:58:32;;;;;;;6.50;5.27;;;-0.20;99.90;;;-141.84;83.36;18497.09;4997951;28;20280;-66
2023/11/29 08:01:05;;;;;;;8.00;6.30;;;-0.20;99.90;;;-141.84;83.35;18549.91;5011671;28;20280;-67
2023/11/29 08:03:34;;;;;;;8.23;5.60;;;-0.10;99.90;;;-141.84;82.42;18509.28;5011314;28;20226;-68
2023/11/29 08:06:03;;;;;;;7.00;5.57;;;0.00;99.90;;;-141.84;81.68;18452.41;5012274;28;20297;-68
2023/11/29 08:08:33;;;;;;;6.77;5.73;;;0.10;99.90;;;-141.84;82.12;18482.88;5011104;28;20258;-67
2023/11/29 08:11:01;;;;;;;7.00;5.97;;;0.10;99.90;;;-141.84;81.02;18444.28;5008570;28;20222;-67
2023/11/29 08:13:29;;;;;;;6.73;5.57;;;0.20;99.90;;;-141.84;81.02;18480.84;5021364;28;20277;-68
2023/11/29 08:15:58;;;;;;;7.77;6.30;;;0.20;99.90;;;-141.84;79.87;18450.38;5031246;28;20279;-68
2023/11/29 08:18:26;;;;;;;8.57;5.90;;;0.20;99.90;;;-141.84;78.87;18468.66;5012252;28;20243;-68
2023/11/29 08:20:55;;;;;;;6.97;6.00;;;0.30;99.90;;;-141.84;78.11;18456.47;5011936;28;20214;-66
2023/11/29 08:23:23;;;;;;;8.30;6.40;;;0.30;99.90;;;-141.84;78.13;18425.97;5011460;28;20563;-67
2023/11/29 08:25:52;;;;;;;6.87;5.73;;;0.40;99.90;;;-141.84;77.16;18454.44;5011379;28;20291;-67
2023/11/29 08:28:20;;;;;;;6.67;5.77;;;0.40;99.90;;;-141.84;77.95;18440.22;5010774;28;20277;-68
2023/11/29 08:30:49;;;;;;;6.80;6.00;;;0.60;99.90;;;-141.84;76.40;18411.75;5010789;28;20229;-68
2023/11/29 08:33:17;;;;;;;9.57;6.10;;;0.50;99.90;;;-141.84;76.28;18474.75;5010817;28;20237;-68
2023/11/29 08:35:47;;;;;;;7.73;6.67;;;0.50;99.90;;;-141.84;76.70;18468.66;5011792;28;20199;-68
2023/11/29 08:38:16;;;;;;;7.07;6.37;;;0.70;99.90;;;-141.84;75.03;18466.63;5010956;28;20231;-69
2023/11/29 08:40:44;;;;;;;8.10;6.10;;;0.90;99.90;;;-141.84;72.78;18462.56;5011126;28;20235;-68
2023/11/29 08:43:14;;;;;;;8.07;6.10;;;1.00;99.90;;;-141.84;71.64;18466.63;5018540;28;20237;-68
2023/11/29 08:45:51;;;;;;;7.80;6.20;;;1.20;99.90;;;-141.84;71.57;18476.78;5012248;28;20238;-69
2023/11/29 08:48:19;;;;;;;7.23;6.07;;;1.20;99.90;;;-141.84;71.45;18480.84;5011133;28;20597;-70
2023/11/29 08:50:53;;;;;;;7.20;6.17;;;1.40;99.90;;;-141.84;71.86;18452.41;5011329;28;20245;-69
2023/11/29 08:53:22;;;;;;;8.17;6.10;;;1.40;99.90;;;-141.84;70.74;18493.03;5010902;28;20826;-69
2023/11/29 08:56:16;;;;;;;7.37;6.53;;;1.50;99.90;;;-141.84;71.10;18430.06;4991004;28;20744;-69
2023/11/29 08:58:46;;;;;;;7.70;6.30;;;1.40;99.90;;;-141.84;71.97;18450.38;4991374;28;20226;-68
2023/11/29 09:01:19;;;;;;;8.50;6.67;;;1.30;99.90;;;-141.84;73.00;18482.88;5001307;28;20307;-69
2023/11/29 09:03:48;;;;;;;8.57;7.07;;;1.30;99.90;;;-141.84;74.00;18452.41;5010647;28;20226;-69
2023/11/29 09:06:16;;;;;;;7.77;6.37;;;1.20;99.90;;;-141.84;74.67;18460.53;5010565;28;20719;-69
2023/11/29 09:08:47;;;;;;;7.93;6.60;;;1.20;99.90;;;-141.84;73.98;18493.03;5011200;28;20202;-70
2023/11/29 09:11:15;;;;;;;7.10;6.27;;;1.20;99.90;;;-141.84;72.96;18480.84;5009686;28;20238;-69
2023/11/29 09:13:48;;;;;;;8.40;6.47;;;1.20;99.90;;;-141.84;72.60;18466.63;5022485;28;20226;-68
2023/11/29 09:16:17;;;;;;;9.27;6.87;;;1.40;99.90;;;-141.84;72.74;18499.13;5027316;28;20721;-68
2023/11/29 09:18:45;;;;;;;7.50;6.00;;;1.40;99.90;;;-141.84;72.45;18486.94;5008761;28;20246;-69
2023/11/29 09:21:13;;;;;;;8.40;6.20;;;1.50;99.90;;;-141.84;73.23;18488.97;5010793;28;20218;-68
2023/11/29 09:23:42;;;;;;;7.80;6.27;;;1.50;99.90;;;-141.84;71.73;18460.53;4990825;28;20260;-69
2023/11/29 09:26:12;;;;;;;7.90;6.53;;;1.60;99.90;;;-141.84;71.43;18484.91;5005925;28;20224;-68
2023/11/29 09:28:40;;;;;;;7.87;6.70;;;1.70;99.90;;;-141.84;71.37;18486.94;5010182;28;20309;-65
2023/11/29 09:31:12;;;;;;;7.07;6.33;;;1.60;99.90;;;-141.84;72.58;18456.47;5009965;28;20230;-65
2023/11/29 09:33:42;;;;;;;7.20;6.43;;;1.60;99.90;;;-141.84;72.20;18438.19;5010135;28;20321;-68
2023/11/29 09:36:11;;;;;;;7.40;6.60;;;1.60;99.90;;;-141.84;73.19;18507.25;5010644;28;20202;-66
2023/11/29 09:38:40;;;;;;;7.33;5.67;;;1.50;99.90;;;-141.84;73.12;18460.53;5009851;28;20317;-64
2023/11/29 09:41:08;;;;;;;8.67;6.33;;;1.40;99.90;;;-141.84;74.25;18438.19;5009795;28;20309;-65
2023/11/29 09:43:37;;;;;;;8.87;7.30;;;1.20;99.90;;;-141.84;74.22;18474.75;5014523;28;20224;-69
2023/11/29 09:46:06;;;;;;;7.90;6.47;;;1.10;99.90;;;-141.84;75.47;18501.16;5009881;28;20306;-70
2023/11/29 09:48:35;;;;;;;8.27;6.67;;;1.10;99.90;;;-141.84;77.26;18458.50;5010277;28;20211;-70
2023/11/29 09:51:05;;;;;;;10.73;7.07;;;0.90;99.90;;;-141.84;79.13;18507.25;5010388;28;20212;-69
2023/11/29 09:53:34;;;;;;;8.60;7.07;;;0.80;99.90;;;-141.84;79.00;18505.22;5010069;28;20660;-68
2023/11/29 09:56:04;;;;;;;8.53;6.97;;;0.70;99.90;;;-141.84;79.39;18509.28;5009599;28;20231;-67
2023/11/29 09:58:33;;;;;;;10.57;7.27;;;0.70;99.90;;;-141.84;79.03;18501.16;5009920;28;20297;-68
2023/11/29 10:01:02;;;;;;;10.33;7.50;;;0.80;99.90;;;-141.84;79.06;18497.09;5009454;28;20261;-68
2023/11/29 10:03:31;;;;;;;10.23;7.10;;;0.70;99.90;;;-141.84;79.47;18509.28;5009913;28;20210;-68
2023/11/29 10:06:04;;;;;;;9.60;7.30;;;0.80;99.90;;;-141.84;78.55;18501.16;5010061;28;20602;-69
2023/11/29 10:08:33;;;;;;;8.70;7.03;;;0.90;99.90;;;-141.84;76.81;18478.81;5009908;28;20230;-70
2023/11/29 10:11:01;;;;;;;8.17;6.87;;;1.00;99.90;;;-141.84;76.99;18468.66;5006993;28;20227;-67
2023/11/29 10:13:30;;;;;;;9.13;7.33;;;1.10;99.90;;;-141.84;76.23;18444.28;5009028;28;20226;-68